Time;durP1;ratioP1;P1;durP2;ratioP2;P2;SDS_P1;SDS_P2;PMS_P1;PMS_P2;Temp;Humidity;BMP_temperature;BMP_pressure;BME280_temperature;BME280_humidity;BME280_pressure;Samples;Min_cycle;Max_cycle;Signal;HPM_P1;HPM_P2
2021/07/22 00:01:12;;;;;;;8.20;6.40;;;21.30;99.90;;;21.31;91.78;101611.72;4168329;28;20025;-76
2021/07/22 00:03:13;;;;;;;9.93;5.93;;;21.30;99.90;;;21.20;91.83;101604.28;4166864;28;20080;-76
2021/07/22 00:05:14;;;;;;;7.40;6.47;;;21.30;99.90;;;21.29;92.22;101622.69;4167980;28;20068;-76
2021/07/22 00:07:14;;;;;;;11.40;6.68;;;21.30;99.90;;;21.25;91.99;101612.56;4170854;28;20029;-76
2021/07/22 00:09:15;;;;;;;11.35;7.93;;;21.40;99.90;;;21.33;91.54;101606.97;4171173;28;20038;-76
2021/07/22 00:11:16;;;;;;;13.43;7.28;;;21.40;99.90;;;21.42;90.50;101609.25;4169863;28;20037;-76
2021/07/22 00:13:17;;;;;;;10.95;7.13;;;21.40;99.90;;;21.43;90.41;101620.84;4153587;28;20077;-76
2021/07/22 00:15:18;;;;;;;8.07;6.60;;;21.40;99.90;;;21.41;90.02;101607.59;4171389;28;20029;-76
2021/07/22 00:17:19;;;;;;;8.18;6.72;;;21.50;99.90;;;21.42;89.80;101611.94;4165776;28;20028;-76
2021/07/22 00:19:20;;;;;;;10.45;7.10;;;21.50;99.90;;;21.37;90.28;101610.91;4181848;28;20025;-76
2021/07/22 00:21:22;;;;;;;10.70;7.00;;;21.40;99.90;;;21.52;89.94;101612.38;4170953;28;20057;-76
2021/07/22 00:23:23;;;;;;;14.25;7.95;;;21.50;99.90;;;21.53;89.02;101613.19;4171037;28;20036;-76
2021/07/22 00:25:24;;;;;;;10.32;7.30;;;21.50;99.90;;;21.60;87.95;101608.63;4170776;28;20492;-76
2021/07/22 00:27:25;;;;;;;8.93;6.50;;;21.60;99.90;;;21.52;88.84;101603.50;4170624;28;20026;-76
2021/07/22 00:29:30;;;;;;;8.13;6.47;;;21.60;99.90;;;21.63;88.49;101616.28;4170482;28;20026;-76
2021/07/22 00:31:31;;;;;;;8.52;6.85;;;21.60;99.90;;;21.59;87.92;101603.50;4169319;28;20113;-76
2021/07/22 00:33:32;;;;;;;8.55;6.25;;;21.60;99.90;;;21.48;89.04;101621.03;4167766;28;20052;-76
2021/07/22 00:35:33;;;;;;;7.35;6.28;;;21.60;99.90;;;21.29;90.32;101608.44;4167824;28;20048;-76
2021/07/22 00:37:34;;;;;;;8.07;6.57;;;21.50;99.90;;;21.22;91.16;101599.53;4170796;28;20118;-76
2021/07/22 00:39:36;;;;;;;10.43;6.57;;;21.40;99.90;;;21.25;91.18;101608.03;4170810;28;20389;-76
2021/07/22 00:41:40;;;;;;;10.50;7.28;;;21.40;99.90;;;21.26;91.33;101614.22;4170662;28;20508;-76
2021/07/22 00:43:42;;;;;;;9.05;6.72;;;21.30;99.90;;;21.19;91.78;101618.72;4170823;28;20028;-76
2021/07/22 00:45:43;;;;;;;11.75;7.70;;;21.30;99.90;;;21.25;90.42;101615.22;4170544;28;20124;-76
2021/07/22 00:47:44;;;;;;;10.23;6.95;;;21.30;99.90;;;21.20;90.02;101605.13;4169374;28;20048;-76
2021/07/22 00:49:49;;;;;;;8.93;6.45;;;21.30;99.90;;;21.30;90.06;101602.03;4170261;28;20034;-76
2021/07/22 00:51:51;;;;;;;9.93;6.70;;;21.40;99.90;;;21.27;90.01;101599.75;4170508;28;20108;-76
2021/07/22 00:53:51;;;;;;;9.82;6.28;;;21.40;99.90;;;21.28;90.24;101609.47;4170693;28;20053;-76
2021/07/22 00:55:52;;;;;;;8.38;6.68;;;21.30;99.90;;;21.26;90.80;101615.03;4169215;28;20037;-76
2021/07/22 00:57:54;;;;;;;8.63;7.50;;;21.40;99.90;;;21.18;90.78;101603.66;4169431;28;20029;-76
2021/07/22 00:59:54;;;;;;;8.40;6.25;;;21.30;99.90;;;21.24;90.72;101609.03;4169468;28;20036;-76
2021/07/22 01:01:55;;;;;;;9.10;6.97;;;21.30;99.90;;;21.13;91.35;101615.00;4170507;28;20025;-76
2021/07/22 01:03:56;;;;;;;8.35;6.63;;;21.30;99.90;;;21.12;91.47;101615.19;4170401;28;20025;-76
2021/07/22 01:05:57;;;;;;;11.27;6.85;;;21.20;99.90;;;21.11;91.42;101610.88;4170017;28;20048;-76
2021/07/22 01:07:59;;;;;;;10.65;7.68;;;21.20;99.90;;;21.11;91.42;101613.56;4170395;28;20026;-76
2021/07/22 01:10:00;;;;;;;11.60;7.25;;;21.20;99.90;;;21.03;91.59;101606.50;4152921;28;20040;-75
2021/07/22 01:12:01;;;;;;;9.13;6.85;;;21.10;99.90;;;20.89;91.99;101600.28;4166072;28;20029;-76
2021/07/22 01:14:01;;;;;;;9.57;7.07;;;21.10;99.90;;;20.93;91.81;101606.91;4170157;28;20025;-76
2021/07/22 01:16:03;;;;;;;10.63;7.53;;;21.00;99.90;;;20.84;91.89;101604.59;4170269;28;20068;-76
2021/07/22 01:18:04;;;;;;;13.38;7.85;;;21.00;99.90;;;20.94;91.02;101611.22;4167921;28;20111;-76
2021/07/22 01:20:25;;;;;;;11.23;7.43;;;21.00;99.90;;;20.95;90.50;101607.53;4168745;28;20025;-76
2021/07/22 01:22:26;;;;;;;13.13;7.78;;;21.00;99.90;;;;;;4170521;28;20029;-76
2021/07/22 01:24:27;;;;;;;11.95;7.88;;;21.00;99.90;;;20.98;90.06;101604.44;4168997;28;20022;-75
2021/07/22 01:26:28;;;;;;;9.85;6.78;;;21.00;99.90;;;20.94;90.47;101608.53;4170183;28;20025;-75
2021/07/22 01:28:29;;;;;;;13.18;7.90;;;21.00;99.90;;;20.89;90.62;101608.31;4168863;28;20029;-76
2021/07/22 01:30:30;;;;;;;8.82;7.75;;;21.00;99.90;;;20.85;90.82;101607.06;4185311;28;20029;-76
2021/07/22 01:32:31;;;;;;;9.20;7.70;;;20.90;99.90;;;21.01;89.34;101591.63;4168974;28;20036;-76
2021/07/22 01:34:32;;;;;;;9.82;8.10;;;21.00;99.90;;;21.06;88.77;101602.56;4168520;28;20397;-76
2021/07/22 01:36:32;;;;;;;12.85;7.90;;;21.00;99.90;;;20.99;89.51;101602.59;4167241;28;20029;-76
2021/07/22 01:38:33;;;;;;;9.50;8.00;;;21.00;99.90;;;20.93;90.26;101598.84;4169792;28;20084;-75
2021/07/22 01:40:34;;;;;;;10.38;8.27;;;21.00;99.90;;;20.91;90.57;101598.22;4169941;28;20408;-75
2021/07/22 01:42:35;;;;;;;10.60;7.18;;;21.00;99.90;;;20.96;90.16;101603.00;4168520;28;20045;-76
2021/07/22 01:44:37;;;;;;;12.95;8.07;;;20.90;99.90;;;20.96;89.31;101597.63;4168484;28;20736;-76
2021/07/22 01:46:37;;;;;;;11.15;7.68;;;21.00;99.90;;;21.13;88.37;101596.22;4172281;28;20114;-76
2021/07/22 01:48:38;;;;;;;12.95;7.90;;;21.10;99.90;;;21.05;89.26;101603.63;4168774;28;20030;-76
2021/07/22 01:50:39;;;;;;;9.27;7.72;;;21.10;99.90;;;20.91;90.09;101590.16;4163172;28;20025;-76
2021/07/22 01:52:40;;;;;;;10.77;7.53;;;21.00;99.90;;;21.15;88.48;101593.34;4168462;28;20029;-76
2021/07/22 01:54:41;;;;;;;10.23;7.85;;;21.00;99.90;;;21.15;88.05;101586.13;4168365;28;20477;-76
2021/07/22 01:56:42;;;;;;;10.52;7.65;;;21.10;99.90;;;21.18;88.76;101595.59;4151961;28;20026;-76
2021/07/22 01:58:43;;;;;;;9.05;7.32;;;21.10;99.90;;;21.16;88.87;101586.94;4152152;28;20022;-76
2021/07/22 02:00:44;;;;;;;8.40;7.07;;;21.10;99.90;;;21.05;89.90;101591.03;4185034;28;20562;-76
2021/07/22 02:02:44;;;;;;;9.00;7.25;;;21.10;99.90;;;20.98;90.06;101580.28;4168350;28;20025;-76
2021/07/22 02:04:45;;;;;;;10.32;7.75;;;21.00;99.90;;;21.04;90.00;101584.00;4157078;28;20026;-76
2021/07/22 02:06:46;;;;;;;10.10;7.78;;;21.00;99.90;;;21.03;89.38;101589.59;4169537;28;20493;-76
2021/07/22 02:08:47;;;;;;;11.68;7.60;;;21.00;99.90;;;20.97;90.31;101594.72;4168239;28;20026;-76
2021/07/22 02:10:48;;;;;;;12.05;7.90;;;21.00;99.90;;;20.84;90.67;101583.97;4184678;28;20112;-76
2021/07/22 02:12:49;;;;;;;13.88;8.55;;;20.90;99.90;;;20.83;90.59;101578.81;4169452;28;20048;-76
2021/07/22 02:14:52;;;;;;;13.00;8.18;;;20.90;99.90;;;20.86;90.39;101584.59;4169469;28;20030;-76
2021/07/22 02:16:53;;;;;;;11.43;8.20;;;20.90;99.90;;;20.88;89.81;101585.22;4169401;28;20030;-76
2021/07/22 02:18:54;;;;;;;11.52;8.65;;;20.80;99.90;;;20.84;89.86;101585.84;4168115;28;20040;-76
2021/07/22 02:20:55;;;;;;;13.20;9.13;;;20.90;99.90;;;20.80;90.45;101580.03;4184342;28;20029;-76
2021/07/22 02:22:56;;;;;;;13.18;8.32;;;20.80;99.90;;;20.82;89.98;101583.34;4168134;28;20485;-76
2021/07/22 02:24:57;;;;;;;11.02;8.90;;;20.80;99.90;;;20.84;89.67;101577.78;4164642;28;20032;-76
2021/07/22 02:27:01;;;;;;;11.32;7.68;;;20.80;99.90;;;20.90;89.19;101577.81;4169305;28;20033;-76
2021/07/22 02:29:04;;;;;;;13.77;9.07;;;20.80;99.90;;;20.86;89.43;101584.59;4168056;28;20037;-76
2021/07/22 02:31:05;;;;;;;13.07;8.43;;;20.80;99.90;;;20.73;90.11;101581.03;4168289;28;20037;-76
2021/07/22 02:33:07;;;;;;;11.77;8.52;;;20.80;99.90;;;20.76;89.90;101575.28;4168046;28;21026;-76
2021/07/22 02:35:08;;;;;;;11.43;8.60;;;20.70;99.90;;;20.81;89.22;101578.19;4168600;28;20392;-76
2021/07/22 02:37:09;;;;;;;14.77;8.55;;;20.70;99.90;;;20.74;89.68;101591.56;4167618;28;20089;-76
2021/07/22 02:39:10;;;;;;;13.50;8.88;;;20.70;99.90;;;20.76;89.17;101589.50;4167627;28;20598;-76
2021/07/22 02:41:11;;;;;;;11.30;8.07;;;20.70;99.90;;;20.65;89.67;101576.69;4168889;28;20032;-76
2021/07/22 02:43:12;;;;;;;10.40;8.00;;;20.70;99.90;;;20.64;89.74;101571.56;4167490;28;20045;-76
2021/07/22 02:45:13;;;;;;;10.93;8.40;;;20.60;99.90;;;20.61;89.73;101580.78;4169021;28;20390;-76
2021/07/22 02:47:14;;;;;;;10.18;7.75;;;20.60;99.90;;;20.57;89.78;101570.69;4151229;28;20235;-76
2021/07/22 02:49:14;;;;;;;11.02;7.65;;;20.60;99.90;;;20.57;89.70;101568.00;4183718;28;20025;-76
2021/07/22 02:51:15;;;;;;;11.45;8.20;;;20.60;99.90;;;20.55;89.72;101568.19;4167743;28;20025;-76
2021/07/22 02:53:16;;;;;;;12.05;9.45;;;20.50;99.90;;;20.51;89.91;101566.97;4167732;28;20033;-76
2021/07/22 02:55:17;;;;;;;10.38;8.07;;;20.50;99.90;;;20.59;89.51;101569.47;4184076;28;20063;-76
2021/07/22 02:57:18;;;;;;;10.68;8.23;;;20.50;99.90;;;20.51;89.72;101575.00;4168955;28;20071;-76
2021/07/22 02:59:19;;;;;;;12.55;8.50;;;20.50;99.90;;;20.42;90.12;101571.69;4168626;28;20515;-76
2021/07/22 03:01:20;;;;;;;11.15;8.93;;;20.40;99.90;;;20.44;89.88;101568.78;4167669;28;20084;-76
2021/07/22 03:03:21;;;;;;;13.65;8.50;;;20.40;99.90;;;20.48;89.81;101571.91;4184224;28;20055;-76
2021/07/22 03:05:22;;;;;;;11.00;8.15;;;20.40;99.90;;;20.51;89.57;101566.97;4168586;28;20108;-76
2021/07/22 03:07:23;;;;;;;13.77;8.80;;;20.50;99.90;;;20.57;89.21;101576.88;4167280;28;20040;-76
2021/07/22 03:09:24;;;;;;;13.45;8.98;;;20.50;99.90;;;20.57;88.90;101574.22;4167688;28;20034;-76
2021/07/22 03:11:25;;;;;;;11.15;8.60;;;20.50;99.90;;;20.56;89.36;101569.84;4167406;28;20033;-76
2021/07/22 03:13:26;;;;;;;13.73;8.63;;;20.50;99.90;;;20.58;89.09;101570.47;4167574;28;20087;-76
2021/07/22 03:15:28;;;;;;;11.55;8.98;;;20.50;99.90;;;20.55;88.92;101573.56;4167130;28;20033;-76
2021/07/22 03:17:29;;;;;;;11.35;9.10;;;20.50;99.90;;;20.47;89.08;101568.38;4167464;28;20232;-75
2021/07/22 03:19:30;;;;;;;12.68;8.32;;;20.50;99.90;;;20.38;90.21;101566.91;4167194;28;20504;-76
2021/07/22 03:21:31;;;;;;;12.98;9.30;;;20.40;99.90;;;20.40;89.75;101575.56;4183872;28;20033;-76
2021/07/22 03:23:31;;;;;;;11.35;8.93;;;20.40;99.90;;;20.44;89.55;101571.47;4167252;28;20060;-76
2021/07/22 03:25:33;;;;;;;13.48;9.20;;;20.40;99.90;;;20.46;89.12;101564.03;4167118;28;20079;-76
2021/07/22 03:27:34;;;;;;;13.13;9.90;;;20.40;99.90;;;20.44;89.29;101571.47;4167412;28;20090;-76
2021/07/22 03:29:35;;;;;;;16.90;9.60;;;20.40;99.90;;;20.31;90.03;101571.41;4160670;28;20033;-76
2021/07/22 03:31:35;;;;;;;10.73;9.07;;;20.30;99.90;;;20.29;90.16;101574.28;4167177;28;20028;-76
2021/07/22 03:33:36;;;;;;;13.98;10.35;;;20.30;99.90;;;20.39;89.76;101581.97;4168013;28;20118;-76
2021/07/22 03:35:37;;;;;;;13.18;9.38;;;20.30;99.90;;;20.28;90.59;101587.91;4168034;28;20397;-76
2021/07/22 03:37:38;;;;;;;16.58;9.32;;;20.30;99.90;;;20.25;90.73;101577.53;4167126;28;20025;-76
2021/07/22 03:39:40;;;;;;;10.80;8.95;;;20.20;99.90;;;20.34;90.07;101590.59;4168305;28;20064;-76
2021/07/22 03:41:47;;;;;;;10.75;8.98;;;20.20;99.90;;;20.28;90.29;101593.25;4168695;28;20029;-76
2021/07/22 03:43:48;;;;;;;11.50;8.82;;;20.20;99.90;;;20.16;90.60;101578.75;4171994;28;20033;-76
2021/07/22 03:45:59;;;;;;;11.38;9.07;;;20.20;99.90;;;20.16;90.60;101578.75;4171647;28;20116;-76
2021/07/22 03:48:01;;;;;;;11.27;8.32;;;20.20;99.90;;;20.12;90.95;101585.50;4170561;28;20122;-76
2021/07/22 03:50:02;;;;;;;9.50;8.50;;;20.10;99.90;;;20.13;91.12;101587.16;4186727;28;20040;-76
2021/07/22 03:52:04;;;;;;;11.32;8.60;;;20.10;99.90;;;20.21;90.78;101587.00;4171441;28;20036;-76
2021/07/22 03:54:05;;;;;;;10.65;8.70;;;20.10;99.90;;;20.13;90.76;101579.13;4170362;28;20076;-76
2021/07/22 03:56:06;;;;;;;12.13;9.25;;;20.10;99.90;;;20.16;90.64;101576.06;4170063;28;20104;-75
2021/07/22 03:58:07;;;;;;;11.68;8.50;;;20.10;99.90;;;20.15;90.14;101572.56;4170345;28;20034;-76
2021/07/22 04:00:10;;;;;;;12.63;9.10;;;20.10;99.90;;;20.03;91.06;101587.53;4171404;28;20029;-76
2021/07/22 04:02:11;;;;;;;12.23;8.60;;;20.10;99.90;;;20.06;90.36;101583.63;4169872;28;20116;-76
2021/07/22 04:04:12;;;;;;;9.98;8.70;;;20.00;99.90;;;19.98;91.42;101589.16;4153247;28;20029;-76
2021/07/22 04:06:13;;;;;;;10.90;8.45;;;20.00;99.90;;;19.80;92.19;101584.28;4171384;28;20398;-76
2021/07/22 04:08:14;;;;;;;13.10;8.32;;;19.90;99.90;;;19.81;91.63;101583.25;4171327;28;20025;-76
2021/07/22 04:10:15;;;;;;;12.48;8.38;;;19.90;99.90;;;19.82;91.81;101579.56;4171231;28;20029;-76
2021/07/22 04:12:17;;;;;;;12.60;8.60;;;19.80;99.90;;;19.99;91.02;101583.56;4170122;28;20108;-76
2021/07/22 04:14:18;;;;;;;11.98;8.55;;;19.90;99.90;;;19.83;91.82;101582.03;4186488;28;20029;-76
2021/07/22 04:16:19;;;;;;;11.52;7.93;;;19.90;99.90;;;19.87;91.84;101571.75;4169950;28;20032;-76
2021/07/22 04:18:20;;;;;;;10.30;7.80;;;19.90;99.90;;;19.88;91.59;101578.78;4186416;28;20112;-76
2021/07/22 04:20:24;;;;;;;12.05;8.77;;;19.90;99.90;;;19.98;91.15;101581.09;4170659;28;20034;-76
2021/07/22 04:22:24;;;;;;;12.13;8.75;;;19.90;99.90;;;19.87;91.68;101580.63;4153432;28;20030;-76
2021/07/22 04:24:25;;;;;;;9.10;8.00;;;19.80;99.90;;;19.75;92.30;101579.50;4169865;28;20086;-76
2021/07/22 04:26:26;;;;;;;9.50;7.78;;;19.80;99.90;;;19.74;91.96;101563.66;4169668;28;20029;-76
2021/07/22 04:28:27;;;;;;;12.52;9.48;;;19.80;99.90;;;19.84;92.02;101581.00;4168618;28;20025;-76
2021/07/22 04:30:28;;;;;;;12.20;8.13;;;19.80;99.90;;;19.70;92.66;101578.44;4171321;28;20030;-76
2021/07/22 04:32:29;;;;;;;10.68;8.88;;;19.80;99.90;;;19.65;92.68;101580.88;4171042;28;20035;-76
2021/07/22 04:34:30;;;;;;;12.93;8.27;;;19.70;99.90;;;19.58;92.68;101583.50;4169546;28;20025;-76
2021/07/22 04:36:31;;;;;;;12.00;8.93;;;19.60;99.90;;;19.61;92.26;101571.59;4170950;28;20036;-76
2021/07/22 04:38:34;;;;;;;13.73;8.82;;;19.70;99.90;;;19.60;92.49;101584.13;4171212;28;20381;-76
2021/07/22 04:40:35;;;;;;;14.43;8.60;;;19.70;99.90;;;19.60;93.18;101578.78;4169811;28;20042;-76
2021/07/22 04:42:36;;;;;;;10.77;8.52;;;19.60;99.90;;;19.50;93.36;101577.47;4170681;28;20091;-76
2021/07/22 04:44:38;;;;;;;9.77;8.27;;;19.60;99.90;;;19.56;92.73;101572.16;4169500;28;20520;-76
2021/07/22 04:46:39;;;;;;;9.43;7.68;;;19.60;99.90;;;19.53;93.53;101583.28;4170793;28;20029;-76
2021/07/22 04:48:39;;;;;;;11.35;7.93;;;19.60;99.90;;;19.61;93.09;101583.13;4170912;28;20029;-76
2021/07/22 04:50:40;;;;;;;10.35;8.43;;;19.60;99.90;;;19.59;92.92;101581.66;4170568;28;20083;-76
2021/07/22 04:52:42;;;;;;;13.02;8.73;;;19.60;99.90;;;19.57;92.67;101579.16;4152830;28;20029;-76
2021/07/22 04:54:43;;;;;;;11.45;7.95;;;19.60;99.90;;;19.62;92.36;101583.94;4170654;28;20033;-76
2021/07/22 04:56:44;;;;;;;9.63;7.93;;;19.60;99.90;;;19.44;93.48;101580.94;4169484;28;20018;-76
2021/07/22 04:58:45;;;;;;;10.80;8.63;;;19.60;99.90;;;19.53;93.23;101587.78;4169480;28;20129;-76
2021/07/22 05:00:46;;;;;;;8.60;7.38;;;19.60;99.90;;;19.40;93.83;101580.47;4170521;28;20022;-76
2021/07/22 05:02:47;;;;;;;11.35;8.13;;;19.60;99.90;;;19.42;93.71;101589.13;4169382;28;20029;-76
2021/07/22 05:04:48;;;;;;;9.00;7.70;;;19.60;99.90;;;19.50;92.93;101589.00;4170273;28;20045;-76
2021/07/22 05:06:48;;;;;;;11.75;8.20;;;19.60;99.90;;;19.53;93.24;101598.50;4169251;28;20448;-76
2021/07/22 05:08:49;;;;;;;11.23;7.82;;;19.60;99.90;;;19.53;92.95;101591.31;4170435;28;20018;-76
2021/07/22 05:10:50;;;;;;;10.32;8.80;;;19.60;99.90;;;19.55;92.49;101593.78;4169228;28;20037;-76
2021/07/22 05:13:03;;;;;;;12.23;8.40;;;19.60;99.90;;;19.58;92.54;101588.84;4175359;28;20017;-76
2021/07/22 05:15:05;;;;;;;9.90;8.32;;;19.70;99.90;;;19.60;92.63;101597.50;4169206;28;20120;-76
2021/07/22 05:17:06;;;;;;;14.30;9.75;;;19.70;99.90;;;19.71;92.20;101594.28;4168922;28;20022;-76
2021/07/22 05:19:09;;;;;;;10.77;7.72;;;19.80;99.90;;;19.59;92.05;101587.81;4185294;28;20021;-76
2021/07/22 05:21:10;;;;;;;9.30;8.00;;;19.80;99.90;;;19.66;91.99;101598.59;4169321;28;20436;-76
2021/07/22 05:23:11;;;;;;;12.40;9.02;;;19.80;99.90;;;19.65;92.80;101592.41;4168904;28;20021;-76
2021/07/22 05:25:12;;;;;;;8.65;7.72;;;19.80;99.90;;;19.59;93.05;101593.16;4168745;28;20449;-76
2021/07/22 05:27:15;;;;;;;9.90;8.82;;;19.80;99.90;;;19.59;93.00;101587.81;4185626;28;20029;-76
2021/07/22 05:29:17;;;;;;;10.27;7.75;;;19.80;99.90;;;19.56;93.43;101596.22;4170547;28;20033;-76
2021/07/22 05:31:18;;;;;;;9.63;8.10;;;19.80;99.90;;;19.50;94.06;101594.38;4152341;28;20082;-77
2021/07/22 05:33:19;;;;;;;8.60;7.70;;;19.70;99.90;;;19.58;94.46;101607.59;4170015;28;20110;-76
2021/07/22 05:35:19;;;;;;;10.90;9.05;;;19.70;99.90;;;19.53;94.45;101588.63;4168608;28;20029;-76
2021/07/22 05:37:21;;;;;;;12.88;8.15;;;19.70;99.90;;;19.57;94.25;101595.22;4169971;28;20048;-76
2021/07/22 05:39:22;;;;;;;13.52;9.23;;;19.70;99.90;;;19.61;94.19;101601.03;4170152;28;20443;-75
2021/07/22 05:41:22;;;;;;;11.57;8.90;;;19.80;99.90;;;19.64;93.81;101604.16;4168542;28;20025;-77
2021/07/22 05:43:23;;;;;;;12.80;9.60;;;19.80;99.90;;;19.80;92.23;101595.00;4169735;28;20045;-76
2021/07/22 05:45:24;;;;;;;10.85;8.90;;;19.90;99.90;;;19.75;92.19;101597.41;4169023;28;20033;-76
2021/07/22 05:47:25;;;;;;;10.00;8.13;;;19.90;99.90;;;19.77;92.63;101606.91;4169815;28;20029;-76
2021/07/22 05:49:26;;;;;;;11.80;8.55;;;19.90;99.90;;;19.72;92.67;101593.28;4168245;28;20036;-76
2021/07/22 05:51:27;;;;;;;16.60;10.48;;;20.00;99.90;;;19.86;91.02;101588.88;4169816;28;20026;-76
2021/07/22 05:53:28;;;;;;;14.85;9.13;;;20.00;99.90;;;19.92;91.37;101603.31;4168585;28;20079;-77
2021/07/22 05:55:29;;;;;;;13.80;9.23;;;20.10;99.90;;;20.06;89.69;101602.38;4169656;28;20022;-76
2021/07/22 05:57:32;;;;;;;12.57;10.20;;;20.20;99.90;;;20.14;89.58;101607.56;4168623;28;20048;-76
2021/07/22 05:59:33;;;;;;;14.45;9.32;;;20.30;99.90;;;20.15;90.17;101606.53;4168516;28;20025;-77
2021/07/22 06:01:34;;;;;;;14.05;10.05;;;20.30;99.90;;;20.15;90.20;101614.59;4168772;28;20443;-76
2021/07/22 06:03:34;;;;;;;12.18;8.98;;;20.30;99.90;;;20.17;90.08;101608.00;4169130;28;20025;-76
2021/07/22 06:05:37;;;;;;;13.82;9.73;;;20.40;99.90;;;20.21;90.05;101611.09;4168136;28;20025;-76
2021/07/22 06:07:38;;;;;;;12.25;8.98;;;20.40;99.90;;;20.22;88.95;101612.78;4169411;28;20369;-76
2021/07/22 06:09:39;;;;;;;13.82;9.60;;;20.40;99.90;;;20.30;87.83;101607.28;4168344;28;20041;-76
2021/07/22 06:11:40;;;;;;;11.77;8.48;;;20.50;99.90;;;20.28;88.36;101610.13;4161646;28;20025;-76
2021/07/22 06:13:41;;;;;;;14.13;9.30;;;20.50;99.90;;;20.30;87.82;101610.78;4168135;28;20029;-76
2021/07/22 06:15:42;;;;;;;11.70;10.15;;;20.60;99.90;;;20.39;87.82;101619.50;4184867;28;20029;-76
2021/07/22 06:17:43;;;;;;;14.05;9.38;;;20.60;99.90;;;20.45;86.51;101616.00;4169477;28;20021;-76
2021/07/22 06:19:44;;;;;;;14.45;9.52;;;20.70;99.90;;;20.47;86.64;101616.63;4167935;28;20030;-76
2021/07/22 06:21:45;;;;;;;13.55;8.85;;;20.70;99.90;;;20.48;87.34;101622.81;4169274;28;20037;-76
2021/07/22 06:23:46;;;;;;;13.52;8.88;;;20.70;99.90;;;20.47;87.49;101619.31;4167897;28;20025;-76
2021/07/22 06:25:47;;;;;;;10.18;8.40;;;20.70;99.90;;;20.57;86.97;101619.78;4184608;28;20042;-77
2021/07/22 06:27:48;;;;;;;14.40;10.05;;;20.80;99.90;;;20.62;86.25;101617.31;4184470;28;20036;-76
2021/07/22 06:29:49;;;;;;;11.75;8.85;;;20.80;99.90;;;20.58;86.76;101617.94;4168146;28;20033;-77
2021/07/22 06:31:50;;;;;;;12.00;9.27;;;20.90;99.90;;;20.66;86.56;101621.25;4184346;28;20424;-76
2021/07/22 06:33:51;;;;;;;12.23;9.48;;;20.90;99.90;;;20.79;85.64;101620.44;4167773;28;20033;-76
2021/07/22 06:35:52;;;;;;;13.85;9.38;;;20.90;99.90;;;20.78;85.92;101611.59;4168963;28;20025;-76
2021/07/22 06:37:53;;;;;;;14.80;9.45;;;21.00;99.90;;;20.86;84.83;101616.78;4168840;28;20029;-76
2021/07/22 06:39:54;;;;;;;12.90;9.52;;;21.10;99.90;;;20.80;85.72;101609.53;4168820;28;20025;-76
2021/07/22 06:41:59;;;;;;;11.90;8.90;;;21.10;99.90;;;20.94;85.35;101616.59;4151337;28;20549;-76
2021/07/22 06:44:00;;;;;;;11.75;8.82;;;21.20;99.90;;;20.95;85.26;101615.56;4167766;28;20021;-76
2021/07/22 06:46:01;;;;;;;14.07;8.75;;;21.20;99.90;;;21.10;83.11;101611.91;4167522;28;20025;-76
2021/07/22 06:48:05;;;;;;;13.38;8.80;;;21.30;99.90;;;21.18;82.37;101620.59;4151041;28;20389;-77
2021/07/22 06:50:07;;;;;;;;;;;21.40;99.90;;;21.16;82.63;101625.34;4168973;28;20030;-76
2021/07/22 06:52:09;;;;;;;13.55;8.90;;;21.50;99.90;;;21.10;82.42;101615.44;4176205;28;19959;-76
2021/07/22 06:54:10;;;;;;;14.98;8.80;;;21.50;99.90;;;21.16;81.86;101619.16;4168492;28;20030;-76
2021/07/22 06:56:11;;;;;;;12.48;9.13;;;21.60;99.90;;;21.23;81.62;101620.81;4150931;28;20529;-76
2021/07/22 06:58:12;;;;;;;12.20;7.90;;;21.60;99.90;;;21.22;82.28;101621.00;4168643;28;20026;-76
2021/07/22 07:00:13;;;;;;;12.90;9.13;;;21.60;99.90;;;21.18;82.63;101606.34;4168427;28;20400;-76
2021/07/22 07:02:14;;;;;;;13.05;8.35;;;21.60;99.90;;;21.33;81.64;101612.34;4168356;28;20021;-76
2021/07/22 07:04:15;;;;;;;13.30;8.18;;;21.60;99.90;;;21.35;81.71;101613.00;4150394;28;20030;-76
2021/07/22 07:06:16;;;;;;;13.02;9.15;;;21.70;99.90;;;21.44;81.04;101617.13;4184071;28;20519;-76
2021/07/22 07:08:17;;;;;;;16.73;8.80;;;21.70;99.90;;;21.59;81.07;101617.75;4168553;28;20044;-76
2021/07/22 07:10:18;;;;;;;19.25;10.55;;;21.80;99.90;;;21.60;79.67;101622.06;4167418;28;20100;-76
2021/07/22 07:12:19;;;;;;;16.27;9.45;;;21.90;99.90;;;21.61;79.23;101617.53;4182071;28;20024;-76
2021/07/22 07:14:20;;;;;;;17.00;10.20;;;22.00;99.90;;;21.69;79.30;101620.81;4167590;28;20476;-76
2021/07/22 07:16:21;;;;;;;11.35;9.13;;;22.00;99.90;;;21.60;80.31;101603.28;4167463;28;20038;-76
2021/07/22 07:18:22;;;;;;;15.25;8.68;;;22.00;99.90;;;21.58;81.30;101612.56;4167358;28;20049;-76
2021/07/22 07:20:22;;;;;;;12.98;9.13;;;22.00;99.90;;;21.65;81.92;101608.88;4148680;28;20544;-76
2021/07/22 07:22:23;;;;;;;15.93;10.00;;;22.00;99.90;;;21.70;82.18;101605.53;4167448;28;20045;-76
2021/07/22 07:24:24;;;;;;;17.15;10.30;;;22.10;99.90;;;21.79;80.02;101610.50;4167311;28;20056;-76
2021/07/22 07:26:25;;;;;;;13.15;9.25;;;22.10;99.90;;;21.92;81.10;101607.00;4168631;28;20033;-76
2021/07/22 07:28:26;;;;;;;12.48;8.82;;;22.20;99.90;;;21.88;78.99;101608.44;4167332;28;20021;-76
2021/07/22 07:30:27;;;;;;;18.88;9.80;;;22.30;99.90;;;21.88;80.62;101601.22;4183935;28;20108;-76
2021/07/22 07:32:28;;;;;;;14.48;10.43;;;22.30;99.90;;;21.92;80.90;101602.44;4167227;28;20021;-76
2021/07/22 07:34:29;;;;;;;13.35;9.75;;;22.30;99.90;;;21.95;79.38;101601.22;4167286;28;20040;-76
2021/07/22 07:36:30;;;;;;;14.00;9.18;;;22.40;99.90;;;22.02;80.95;101599.31;4168170;28;20026;-76
2021/07/22 07:38:31;;;;;;;17.85;9.90;;;22.40;99.90;;;22.10;79.10;101609.88;4168564;28;20400;-76
2021/07/22 07:40:33;;;;;;;14.32;8.65;;;22.50;99.90;;;22.23;78.41;101611.66;4168511;28;20021;-76
2021/07/22 07:42:37;;;;;;;16.45;9.00;;;22.60;99.90;;;22.26;79.71;101604.00;4150809;28;20042;-76
2021/07/22 07:44:38;;;;;;;13.63;9.40;;;22.60;99.90;;;22.27;78.40;101597.59;4167040;28;20018;-76
2021/07/22 07:46:39;;;;;;;13.50;8.93;;;22.70;99.90;;;22.43;76.40;101617.84;4167174;28;20559;-76
2021/07/22 07:48:40;;;;;;;14.00;9.02;;;22.80;99.90;;;22.55;77.65;101616.09;4167169;28;20032;-76
2021/07/22 07:50:41;;;;;;;12.25;9.73;;;22.90;99.90;;;22.56;75.50;101613.22;4168303;28;20029;-76
2021/07/22 07:52:42;;;;;;;13.57;9.13;;;22.90;99.90;;;22.68;74.34;101607.19;4167030;28;20056;-76
2021/07/22 07:54:43;;;;;;;18.48;9.45;;;23.10;99.90;;;22.78;75.21;101599.50;4183280;28;20068;-76
2021/07/22 07:56:44;;;;;;;14.88;9.75;;;23.10;99.90;;;22.87;73.89;101599.03;4166993;28;20064;-76
2021/07/22 07:58:45;;;;;;;13.20;8.27;;;23.30;99.90;;;22.99;74.02;101602.69;4167017;28;20037;-76
2021/07/22 08:00:47;;;;;;;14.07;9.90;;;23.40;99.90;;;23.02;75.32;101607.63;4166968;28;20048;-76
2021/07/22 08:02:48;;;;;;;16.33;10.02;;;23.50;99.90;;;23.18;72.88;101605.47;4149804;28;20034;-76
2021/07/22 08:04:49;;;;;;;15.05;9.07;;;23.60;99.90;;;23.18;71.37;101592.81;4166911;28;20078;-76
2021/07/22 08:06:50;;;;;;;14.93;9.25;;;23.70;99.90;;;23.40;72.13;101596.00;4168126;28;20030;-76
2021/07/22 08:08:51;;;;;;;16.35;8.73;;;23.80;99.90;;;23.51;70.99;101596.09;4168029;28;20032;-76
2021/07/22 08:10:57;;;;;;;17.77;9.75;;;24.00;99.90;;;23.63;70.67;101598.88;4167116;28;20075;-76
2021/07/22 08:12:58;;;;;;;14.20;9.60;;;24.10;99.90;;;23.74;70.32;101589.28;4141668;28;20025;-76
2021/07/22 08:14:58;;;;;;;16.35;9.63;;;24.20;99.90;;;23.85;69.64;101588.53;4166594;28;20022;-77
2021/07/22 08:16:59;;;;;;;14.05;9.48;;;24.30;99.90;;;23.94;69.46;101596.13;4183189;28;20034;-76
2021/07/22 08:19:00;;;;;;;13.25;8.90;;;24.40;99.90;;;24.06;69.77;101594.34;4167825;28;20420;-76
2021/07/22 08:21:01;;;;;;;14.70;10.23;;;24.60;99.90;;;24.18;69.34;101599.81;4168013;28;20022;-76